Página principal
METAR-TAF:

METAR-TAF

Aeroportos :

Livingston County Spencer J. Hardy Airport

Howell, Michigan, Estados Unidos

latitude: 42-37-46N, longitude: 083-59-03W, altura: 293 m

Observação actual do tempo

O boletim foi feito há 11 minutos, às 20:55 UTC
Vento 7 kt de oes-sudoeste
Temperatura 31°C
Humidade 43%
Pressão 1012 hPa
Visibilidade: 16.1 km
Nuvens dispersasa uma altura de 7000 ft
Nuvens dispersasa uma altura de 8000 ft

METAR: KOZW 272055Z AUTO 25007KT 10SM SCT070 SCT080 31/17 A2988 RMK AO2 T03130172

Hora: 17:06 (21:06 UTC)


TAF: em falta

Observações e previsões do tempo de mais de 4000 aeroportos (mensagens METAR e TAF).

As estações disponíveis são os pontos amarelos e vermelhos sobre o mapa.

Mova o rato sobre o mapa para ver o nome da estação.

Depois clique no ponto para visualizar as observações e previsões meteorológicas.

Para alterar o mapa : clique nos botões verdes com uma cruz preta para aumentar o zoom; no botão verde com uma pitada de zoom; ou nas setas verdes para mapas adjacentes.


METAR-TAF: